Time;durP1;ratioP1;P1;durP2;ratioP2;P2;SDS_P1;SDS_P2;PMS_P1;PMS_P2;Temp;Humidity;BMP_temperature;BMP_pressure;BME280_temperature;BME280_humidity;BME280_pressure;Samples;Min_cycle;Max_cycle;Signal;HPM_P1;HPM_P2
2022/03/15 00:01:10;;;;;;;;;;;;;;;0.36;100.00;99770.16;10340236;28;19953;-81
2022/03/15 00:06:12;;;;;;;;;;;;;;;0.32;100.00;99763.72;10331137;28;19930;-82
2022/03/15 00:11:18;;;;;;;;;;;;;;;0.38;100.00;99760.19;10337673;28;19937;-83
2022/03/15 00:16:22;;;;;;;;;;;;;;;0.44;100.00;99759.31;10323912;28;19958;-81
2022/03/15 00:21:25;;;;;;;;;;;;;;;0.47;100.00;99745.66;10361952;28;19965;-85
2022/03/15 00:26:28;;;;;;;;;;;;;;;0.44;100.00;99746.91;10373830;28;19930;-80
2022/03/15 00:31:31;;;;;;;;;;;;;;;0.34;100.00;99741.31;10349462;28;19960;-81
2022/03/15 00:36:35;;;;;;;;;;;;;;;0.31;100.00;99746.25;10335176;28;19941;-82
2022/03/15 00:41:44;;;;;;;;;;;;;;;0.30;100.00;99724.31;10339646;28;19929;-82
2022/03/15 00:46:49;;;;;;;;;;;;;;;0.34;100.00;99727.31;10323691;28;19968;-81
2022/03/15 00:51:51;;;;;;;;;;;;;;;0.21;100.00;99726.44;10341669;28;20300;-81
2022/03/15 00:56:54;;;;;;;;;;;;;;;0.24;100.00;99726.00;10341226;28;19992;-82
2022/03/15 01:02:17;;;;;;;;;;;;;;;0.24;100.00;99704.88;10340098;28;19979;-84
2022/03/15 01:08:11;;;;;;;;;;;;;;;0.22;100.00;99714.06;10404980;23;19981;-84
2022/03/15 01:13:32;;;;;;;;;;;;;;;0.31;100.00;99696.88;10409450;28;19933;-87
2022/03/15 01:18:37;;;;;;;;;;;;;;;0.39;100.00;99699.22;10388376;28;19925;-82
2022/03/15 01:23:42;;;;;;;;;;;;;;;0.44;100.00;99701.19;10379752;28;19929;-81
2022/03/15 01:28:46;;;;;;;;;;;;;;;0.40;100.00;99702.69;10386121;28;19964;-83
2022/03/15 01:33:47;;;;;;;;;;;;;;;0.35;100.00;99699.88;10369317;28;19956;-83
2022/03/15 01:38:51;;;;;;;;;;;;;;;0.33;100.00;99689.53;10375289;28;19965;-85
2022/03/15 01:43:53;;;;;;;;;;;;;;;0.34;100.00;99690.34;10388351;28;19944;-81
2022/03/15 01:48:53;;;;;;;;;;;;;;;0.45;100.00;99679.03;10407414;28;19931;-82
2022/03/15 01:53:55;;;;;;;;;;;;;;;0.48;100.00;99681.25;10411356;28;19929;-79
2022/03/15 01:58:57;;;;;;;;;;;;;;;0.37;100.00;99676.72;10403536;28;19919;-81
2022/03/15 02:04:04;;;;;;;;;;;;;;;0.34;100.00;99659.47;10475385;23;19941;-82
2022/03/15 02:09:12;;;;;;;;;;;;;;;0.34;100.00;99671.88;10438613;28;19920;-83
2022/03/15 02:14:14;;;;;;;;;;;;;;;0.35;100.00;99673.47;10425834;28;20019;-82
2022/03/15 02:19:16;;;;;;;;;;;;;;;0.39;100.00;99664.09;10449931;28;19935;-80
2022/03/15 02:24:20;;;;;;;;;;;;;;;0.33;100.00;99659.69;10443038;28;19924;-82
2022/03/15 02:29:52;;;;;;;;;;;;;;;0.34;100.00;99654.19;10439160;28;20005;-82
2022/03/15 02:34:53;;;;;;;;;;;;;;;0.33;100.00;99651.78;10428265;28;19913;-81
2022/03/15 02:40:02;;;;;;;;;;;;;;;0.30;100.00;99654.88;10433385;28;19913;-83
2022/03/15 02:45:07;;;;;;;;;;;;;;;0.31;100.00;99661.75;10464222;28;19909;-82
2022/03/15 02:50:45;;;;;;;;;;;;;;;0.37;100.00;99660.88;10412427;28;19925;-80
2022/03/15 02:55:53;;;;;;;;;;;;;;;0.24;100.00;99648.63;10417892;28;19931;-81
2022/03/15 03:00:53;;;;;;;;;;;;;;;0.23;100.00;99653.09;10400893;28;19976;-79
2022/03/15 03:05:54;;;;;;;;;;;;;;;0.27;100.00;99650.81;10384479;28;19965;-78
2022/03/15 03:10:56;;;;;;;;;;;;;;;0.26;100.00;99651.84;10427372;28;19940;-79
2022/03/15 03:16:00;;;;;;;;;;;;;;;0.29;100.00;99648.78;10418977;28;20785;-82
2022/03/15 03:21:01;;;;;;;;;;;;;;;0.46;100.00;99648.97;10414645;28;19932;-82
2022/03/15 03:26:03;;;;;;;;;;;;;;;0.31;100.00;99656.47;10414810;28;19929;-83
2022/03/15 03:31:07;;;;;;;;;;;;;;;0.42;100.00;99650.44;10424014;28;20339;-82
2022/03/15 03:36:09;;;;;;;;;;;;;;;0.35;100.00;99647.88;10427361;28;20016;-81
2022/03/15 03:41:27;;;;;;;;;;;;;;;0.34;100.00;99626.97;10417183;28;19929;-81
2022/03/15 03:46:28;;;;;;;;;;;;;;;0.37;100.00;99627.34;10403812;28;20493;-82
2022/03/15 03:51:30;;;;;;;;;;;;;;;0.35;100.00;99621.47;10377751;28;19952;-81
2022/03/15 03:56:33;;;;;;;;;;;;;;;0.46;100.00;99623.38;10417901;28;19982;-83
2022/03/15 04:02:05;;;;;;;;;;;;;;;0.36;100.00;99632.81;10391150;28;19972;-80
2022/03/15 04:07:07;;;;;;;;;;;;;;;0.32;100.00;99607.91;10411902;28;19968;-80
2022/03/15 04:12:10;;;;;;;;;;;;;;;0.24;100.00;99617.75;10395061;28;19925;-80
2022/03/15 04:17:15;;;;;;;;;;;;;;;0.32;100.00;99613.19;10408501;28;19944;-80
2022/03/15 04:22:15;;;;;;;;;;;;;;;0.34;100.00;99606.66;10400433;28;20008;-82
2022/03/15 04:27:19;;;;;;;;;;;;;;;0.37;100.00;99610.69;10403007;28;19953;-80
2022/03/15 04:32:24;;;;;;;;;;;;;;;0.33;100.00;99620.88;10392633;28;19937;-81
2022/03/15 04:37:25;;;;;;;;;;;;;;;0.41;100.00;99612.66;10425475;28;19997;-82
2022/03/15 04:42:25;;;;;;;;;;;;;;;0.38;100.00;99607.84;10418873;28;19929;-81
2022/03/15 04:47:26;;;;;;;;;;;;;;;0.47;100.00;99608.31;10405636;28;19932;-82
2022/03/15 04:52:31;;;;;;;;;;;;;;;0.43;100.00;99593.94;10402535;28;19929;-81
2022/03/15 04:57:31;;;;;;;;;;;;;;;0.33;100.00;99585.75;10414603;28;19949;-80
2022/03/15 05:02:41;;;;;;;;;;;;;;;0.38;100.00;99572.69;10425448;28;19944;-83
2022/03/15 05:07:43;;;;;;;;;;;;;;;0.42;100.00;99571.22;10418090;28;19937;-80
2022/03/15 05:12:44;;;;;;;;;;;;;;;0.34;100.00;99563.59;10406841;28;19925;-80
2022/03/15 05:17:48;;;;;;;;;;;;;;;0.34;100.00;99558.31;10384567;28;19936;-83
2022/03/15 05:22:50;;;;;;;;;;;;;;;0.31;100.00;99564.06;10408184;28;19956;-84
2022/03/15 05:27:52;;;;;;;;;;;;;;;0.27;100.00;99551.31;10413865;28;19929;-84
2022/03/15 05:32:53;;;;;;;;;;;;;;;0.41;100.00;99556.41;10416735;28;20001;-85
2022/03/15 05:37:54;;;;;;;;;;;;;;;0.38;100.00;99551.56;10435776;28;19920;-80
2022/03/15 05:42:55;;;;;;;;;;;;;;;0.44;100.00;99554.09;10450034;28;19913;-83
2022/03/15 05:47:59;;;;;;;;;;;;;;;0.41;100.00;99546.63;10426369;28;19932;-81
2022/03/15 05:53:04;;;;;;;;;;;;;;;0.48;100.00;99546.56;10389629;28;19929;-80
2022/03/15 05:58:06;;;;;;;;;;;;;;;0.53;100.00;99547.47;10394697;28;19925;-80
2022/03/15 06:03:07;;;;;;;;;;;;;;;0.53;100.00;99544.81;10380722;28;19951;-80
2022/03/15 06:08:10;;;;;;;;;;;;;;;0.59;100.00;99553.69;10425280;28;20448;-80
2022/03/15 06:13:12;;;;;;;;;;;;;;;0.67;100.00;99542.81;10414418;28;19929;-82
2022/03/15 06:18:13;;;;;;;;;;;;;;;0.75;100.00;99546.94;10441626;28;19984;-81
2022/03/15 06:23:17;;;;;;;;;;;;;;;0.83;100.00;99533.41;10437498;28;19925;-82
2022/03/15 06:28:20;;;;;;;;;;;;;;;0.91;100.00;99535.69;10430229;28;19936;-80
2022/03/15 06:33:23;;;;;;;;;;;;;;;1.02;100.00;99529.63;10390022;28;20222;-80
2022/03/15 06:38:27;;;;;;;;;;;;;;;1.15;100.00;99533.88;10409904;28;20329;-81
2022/03/15 06:43:28;;;;;;;;;;;;;;;1.33;100.00;99531.09;10433579;28;19929;-83
2022/03/15 06:48:30;;;;;;;;;;;;;;;1.42;100.00;99531.56;10443014;28;19930;-82
2022/03/15 06:53:31;;;;;;;;;;;;;;;1.68;100.00;99522.31;10430016;28;19940;-82
2022/03/15 06:58:33;;;;;;;;;;;;;;;1.76;100.00;99526.44;10415137;28;19955;-83
2022/03/15 07:03:34;;;;;;;;;;;;;;;1.70;100.00;99518.38;10409433;28;19984;-81
2022/03/15 07:08:34;;;;;;;;;;;;;;;1.83;100.00;99530.56;10433665;28;19939;-82
2022/03/15 07:13:34;;;;;;;;;;;;;;;1.84;100.00;99518.13;10435845;28;19925;-77
2022/03/15 07:18:35;;;;;;;;;;;;;;;2.12;100.00;99519.97;10419606;28;19929;-76
2022/03/15 07:23:36;;;;;;;;;;;;;;;2.24;100.00;99513.56;10411933;28;20295;-79
2022/03/15 07:28:36;;;;;;;;;;;;;;;2.58;100.00;99512.81;10430183;28;20007;-77
2022/03/15 07:33:38;;;;;;;;;;;;;;;2.45;100.00;99517.38;10425152;28;19945;-78
2022/03/15 07:38:39;;;;;;;;;;;;;;;2.54;100.00;99517.78;10394223;28;19940;-77
2022/03/15 07:43:41;;;;;;;;;;;;;;;2.50;100.00;99520.13;10390190;28;21017;-79
2022/03/15 07:48:41;;;;;;;;;;;;;;;2.80;100.00;99516.34;10385613;28;19934;-76
2022/03/15 07:53:42;;;;;;;;;;;;;;;3.14;100.00;99509.97;10393504;28;19936;-76
2022/03/15 07:58:43;;;;;;;;;;;;;;;3.43;100.00;99488.59;10383082;28;19929;-78
2022/03/15 08:03:43;;;;;;;;;;;;;;;3.54;100.00;99490.34;10395635;28;20024;-78
2022/03/15 08:08:43;;;;;;;;;;;;;;;3.54;100.00;99490.34;10386425;28;19932;-79
2022/03/15 08:13:44;;;;;;;;;;;;;;;3.91;100.00;99471.09;10388040;28;20099;-77
2022/03/15 08:18:45;;;;;;;;;;;;;;;4.33;100.00;99476.56;10383982;28;19925;-76
2022/03/15 08:23:46;;;;;;;;;;;;;;;4.32;100.00;99479.50;10384364;28;19940;-76
2022/03/15 08:28:48;;;;;;;;;;;;;;;4.62;100.00;99462.97;10372980;28;19960;-76
2022/03/15 08:33:48;;;;;;;;;;;;;;;4.61;100.00;99462.19;10378615;28;19936;-77
2022/03/15 08:38:51;;;;;;;;;;;;;;;4.78;100.00;99454.88;10406693;28;19989;-76
2022/03/15 08:43:54;;;;;;;;;;;;;;;4.72;100.00;99442.56;10417771;28;19929;-77
2022/03/15 08:48:55;;;;;;;;;;;;;;;5.02;100.00;99441.97;10435683;28;19955;-80
2022/03/15 08:53:58;;;;;;;;;;;;;;;5.34;100.00;99439.22;10426023;28;19929;-79
2022/03/15 08:59:02;;;;;;;;;;;;;;;5.68;100.00;99428.94;10401967;28;20364;-86
2022/03/15 09:04:06;;;;;;;;;;;;;;;5.66;100.00;99422.25;10377364;28;19929;-82
2022/03/15 09:09:07;;;;;;;;;;;;;;;5.82;100.00;99415.13;10425695;28;19932;-82
2022/03/15 09:14:12;;;;;;;;;;;;;;;6.04;100.00;99404.28;10428711;28;19959;-78
2022/03/15 09:19:15;;;;;;;;;;;;;;;6.41;100.00;99404.81;10419605;28;19921;-80
2022/03/15 09:24:16;;;;;;;;;;;;;;;6.57;100.00;99417.03;10426623;28;19981;-79
2022/03/15 09:29:17;;;;;;;;;;;;;;;6.72;100.00;99413.56;10397739;28;20357;-80
2022/03/15 09:34:22;;;;;;;;;;;;;;;6.67;100.00;99394.91;10406988;28;19983;-80
2022/03/15 09:39:29;;;;;;;;;;;;;;;6.63;100.00;99377.03;10420511;28;19936;-79
2022/03/15 09:44:30;;;;;;;;;;;;;;;6.68;100.00;99374.38;10425734;28;20000;-81
2022/03/15 09:49:37;;;;;;;;;;;;;;;6.96;100.00;99352.41;10422942;28;19936;-80
2022/03/15 09:54:41;;;;;;;;;;;;;;;7.18;100.00;99352.06;10380162;28;20292;-80
2022/03/15 09:59:43;;;;;;;;;;;;;;;7.36;100.00;99338.06;10413453;28;19957;-81
2022/03/15 10:04:44;;;;;;;;;;;;;;;7.79;100.00;99343.69;10413434;28;20315;-81
2022/03/15 10:09:44;;;;;;;;;;;;;;;7.68;100.00;99336.81;10392359;28;19926;-79
2022/03/15 10:14:46;;;;;;;;;;;;;;;7.78;100.00;99322.59;10418841;28;19940;-81
2022/03/15 10:19:51;;;;;;;;;;;;;;;7.51;100.00;99309.69;10403071;28;19925;-82
2022/03/15 10:24:54;;;;;;;;;;;;;;;7.76;100.00;99298.00;10408966;28;19929;-80
2022/03/15 10:29:57;;;;;;;;;;;;;;;8.14;100.00;99291.81;10414117;28;19930;-81
2022/03/15 10:35:08;;;;;;;;;;;;;;;8.30;100.00;99280.97;10408424;28;19989;-81
2022/03/15 10:40:11;;;;;;;;;;;;;;;8.42;100.00;99273.41;10388867;28;19979;-81
2022/03/15 10:45:26;;;;;;;;;;;;;;;8.63;100.00;99249.88;10419515;28;19932;-82
2022/03/15 10:50:30;;;;;;;;;;;;;;;8.86;100.00;99240.22;10408984;28;19933;-82
2022/03/15 10:55:32;;;;;;;;;;;;;;;8.93;100.00;99225.38;10434359;28;19936;-85
2022/03/15 11:00:42;;;;;;;;;;;;;;;9.28;100.00;99229.44;10427266;28;19917;-80
2022/03/15 11:05:57;;;;;;;;;;;;;;;9.37;100.00;99214.31;10436791;28;19914;-80
2022/03/15 11:11:05;;;;;;;;;;;;;;;9.59;100.00;99200.28;10415613;28;20392;-81
2022/03/15 11:16:07;;;;;;;;;;;;;;;9.67;100.00;99194.25;10385345;28;20301;-79
2022/03/15 11:21:09;;;;;;;;;;;;;;;9.54;100.00;99180.84;10389347;28;19934;-80
2022/03/15 11:26:12;;;;;;;;;;;;;;;9.62;100.00;99180.16;10396999;28;19933;-79
2022/03/15 11:31:14;;;;;;;;;;;;;;;9.75;100.00;99155.25;10401789;28;19929;-80
2022/03/15 11:41:38;;;;;;;;;;;;;;;9.91;100.00;99142.38;10717214;23;19992;-79
2022/03/15 11:46:58;;;;;;;;;;;;;;;9.81;100.00;99147.94;10366932;28;19933;-80
2022/03/15 11:52:17;;;;;;;;;;;;;;;9.87;100.00;99142.16;10360633;28;19941;-81
2022/03/15 11:57:35;;;;;;;;;;;;;;;9.86;100.00;99139.78;10408821;28;19925;-80
2022/03/15 12:02:39;;;;;;;;;;;;;;;9.90;100.00;99128.19;10652612;23;20973;-84
2022/03/15 12:13:59;;;;;;;;;;;;;;;10.13;100.00;99101.44;10391342;28;19925;-82
2022/03/15 12:19:13;;;;;;;;;;;;;;;10.27;100.00;99106.84;10390505;28;19933;-80
2022/03/15 12:24:18;;;;;;;;;;;;;;;10.28;100.00;99100.38;10386467;28;19948;-84
2022/03/15 12:29:20;;;;;;;;;;;;;;;10.19;100.00;99084.16;10342679;28;20654;-82
2022/03/15 12:34:21;;;;;;;;;;;;;;;10.07;100.00;99073.16;10381018;28;20044;-85
2022/03/15 12:39:26;;;;;;;;;;;;;;;10.07;100.00;99078.53;10376434;28;19933;-84
2022/03/15 12:44:45;;;;;;;;;;;;;;;10.11;100.00;99063.41;10370804;28;19929;-84
2022/03/15 12:50:05;;;;;;;;;;;;;;;10.18;100.00;99043.13;10360225;28;19929;-84
2022/03/15 12:55:28;;;;;;;;;;;;;;;10.15;100.00;99030.31;10351884;28;19929;-84
2022/03/15 13:00:32;;;;;;;;;;;;;;;10.17;100.00;99009.34;10331343;28;19964;-80
2022/03/15 13:05:42;;;;;;;;;;;;;;;10.23;100.00;98994.75;10389550;28;19933;-82
2022/03/15 13:10:46;;;;;;;;;;;;;;;10.28;100.00;98996.53;10396990;28;19925;-83
2022/03/15 13:16:09;;;;;;;;;;;;;;;10.16;100.00;98975.59;10409338;28;19929;-82
2022/03/15 13:21:33;;;;;;;;;;;;;;;10.30;100.00;98958.66;10398575;28;19933;-82
2022/03/15 13:26:38;;;;;;;;;;;;;;;10.43;100.00;98965.88;10373228;28;20551;-81
2022/03/15 13:31:46;;;;;;;;;;;;;;;10.36;100.00;98960.94;10406797;28;19932;-84
2022/03/15 13:37:12;;;;;;;;;;;;;;;10.08;100.00;98948.69;10450422;28;19913;-84
2022/03/15 13:42:22;;;;;;;;;;;;;;;9.97;100.00;98940.88;10376100;28;19929;-80
2022/03/15 13:47:32;;;;;;;;;;;;;;;9.87;100.00;98938.38;10413990;28;19940;-82
2022/03/15 13:52:39;;;;;;;;;;;;;;;9.78;100.00;98939.41;10392780;28;19965;-81
2022/03/15 13:57:49;;;;;;;;;;;;;;;9.46;100.00;98933.09;10386433;28;19964;-83
2022/03/15 14:02:51;;;;;;;;;;;;;;;9.38;100.00;98926.56;10386366;28;19952;-81
2022/03/15 14:08:01;;;;;;;;;;;;;;;9.16;100.00;98915.75;10394038;28;19961;-82
2022/03/15 14:13:06;;;;;;;;;;;;;;;9.03;100.00;98905.81;10398445;28;19934;-82
2022/03/15 14:18:24;;;;;;;;;;;;;;;8.93;100.00;98914.03;10390382;28;19969;-85
2022/03/15 14:23:34;;;;;;;;;;;;;;;8.79;100.00;98908.69;10493376;23;19931;-86
2022/03/15 14:28:58;;;;;;;;;;;;;;;8.84;100.00;98897.88;10474581;28;19928;-84
2022/03/15 14:34:03;;;;;;;;;;;;;;;8.98;100.00;98885.31;10473561;28;19948;-83
2022/03/15 14:39:22;;;;;;;;;;;;;;;9.11;100.00;98870.31;10452850;28;19928;-83
2022/03/15 14:44:26;;;;;;;;;;;;;;;9.13;100.00;98862.78;10494164;28;19928;-81
2022/03/15 14:49:56;;;;;;;;;;;;;;;8.97;100.00;98842.78;10491698;28;20051;-84
2022/03/15 14:55:00;;;;;;;;;;;;;;;8.90;100.00;98835.13;10483080;28;19982;-82
2022/03/15 15:00:08;;;;;;;;;;;;;;;8.70;100.00;98822.16;10505687;28;19929;-83
2022/03/15 15:05:11;;;;;;;;;;;;;;;8.56;100.00;98816.78;10453214;28;19935;-84
2022/03/15 15:10:15;;;;;;;;;;;;;;;8.44;100.00;98816.47;10446019;28;19936;-83
2022/03/15 15:15:16;;;;;;;;;;;;;;;8.43;100.00;98801.53;10477831;28;19909;-83
2022/03/15 15:20:22;;;;;;;;;;;;;;;8.39;100.00;98784.47;10473411;28;19929;-83
2022/03/15 15:25:44;;;;;;;;;;;;;;;8.32;100.00;98778.66;10477656;28;19912;-86
2022/03/15 15:30:48;;;;;;;;;;;;;;;8.16;100.00;98773.59;10432576;28;19929;-84
2022/03/15 15:35:49;;;;;;;;;;;;;;;8.13;100.00;98778.72;10450601;28;19913;-83
2022/03/15 15:40:53;;;;;;;;;;;;;;;8.09;100.00;98770.53;10461522;28;19924;-85
2022/03/15 15:45:57;;;;;;;;;;;;;;;7.99;100.00;98789.41;10475606;28;19925;-83
2022/03/15 15:50:58;;;;;;;;;;;;;;;7.95;100.00;98829.31;10441643;28;19933;-82
2022/03/15 15:56:01;;;;;;;;;;;;;;;7.72;100.00;98845.44;10440115;28;19972;-82
2022/03/15 16:01:11;;;;;;;;;;;;;;;7.63;100.00;98856.75;10442874;28;19996;-81
2022/03/15 16:06:12;;;;;;;;;;;;;;;7.56;100.00;98850.19;10469547;28;19947;-81
2022/03/15 16:11:19;;;;;;;;;;;;;;;7.42;100.00;98879.50;10476230;28;19920;-84
2022/03/15 16:16:19;;;;;;;;;;;;;;;7.39;100.00;98882.72;10476799;28;19912;-80
2022/03/15 16:21:22;;;;;;;;;;;;;;;7.38;100.00;98876.59;10492713;28;19932;-83
2022/03/15 16:26:27;;;;;;;;;;;;;;;7.34;100.00;98878.25;10473920;28;19913;-83
2022/03/15 16:31:39;;;;;;;;;;;;;;;7.31;100.00;98862.78;10472296;28;19913;-85
2022/03/15 16:37:04;;;;;;;;;;;;;;;7.13;100.00;98852.88;10465526;28;20047;-84
2022/03/15 16:42:07;;;;;;;;;;;;;;;7.05;100.00;98858.88;10453686;28;20295;-84
2022/03/15 16:47:07;;;;;;;;;;;;;;;6.92;100.00;98878.22;10438605;28;19979;-81
2022/03/15 16:52:08;;;;;;;;;;;;;;;7.06;100.00;98895.94;10447523;28;19944;-83
2022/03/15 16:57:28;;;;;;;;;;;;;;;7.05;100.00;98878.34;10425331;28;19952;-88
2022/03/15 17:02:35;;;;;;;;;;;;;;;6.97;100.00;98873.63;10454286;28;19952;-86
2022/03/15 17:13:53;;;;;;;;;;;;;;;6.84;100.00;98875.09;10444114;28;19929;-84
2022/03/15 17:18:56;;;;;;;;;;;;;;;6.82;100.00;98871.13;10391398;28;20291;-82
2022/03/15 17:23:57;;;;;;;;;;;;;;;6.80;100.00;98871.41;10386314;28;20633;-85
2022/03/15 17:29:19;;;;;;;;;;;;;;;6.79;100.00;98863.69;10458550;28;19935;-83
2022/03/15 17:34:25;;;;;;;;;;;;;;;6.81;100.00;98861.53;10428810;28;19933;-84
2022/03/15 17:39:28;;;;;;;;;;;;;;;6.74;100.00;98863.75;10410581;28;19988;-82
2022/03/15 17:44:33;;;;;;;;;;;;;;;6.69;100.00;98874.47;10435484;28;19940;-83
2022/03/15 17:49:36;;;;;;;;;;;;;;;6.65;100.00;98868.88;10397913;28;19985;-85
2022/03/15 17:54:40;;;;;;;;;;;;;;;6.62;100.00;98869.47;10402013;28;19988;-83
2022/03/15 17:59:47;;;;;;;;;;;;;;;6.60;100.00;98862.84;10421984;28;19912;-84
2022/03/15 18:05:09;;;;;;;;;;;;;;;6.55;100.00;98871.66;10423326;28;19929;-86
2022/03/15 18:15:50;;;;;;;;;;;;;;;6.56;100.00;98878.59;10374767;28;19939;-85
2022/03/15 18:21:08;;;;;;;;;;;;;;;6.59;100.00;98874.59;10410943;28;19925;-86
2022/03/15 18:26:18;;;;;;;;;;;;;;;6.60;100.00;98868.16;10388626;28;19964;-84
2022/03/15 18:31:28;;;;;;;;;;;;;;;6.62;100.00;98880.13;10463527;28;19925;-83
2022/03/15 18:36:33;;;;;;;;;;;;;;;6.70;100.00;98886.72;10542624;23;19945;-85
2022/03/15 18:41:40;;;;;;;;;;;;;;;6.68;100.00;98881.69;10369553;28;19910;-85
2022/03/15 18:46:46;;;;;;;;;;;;;;;6.70;100.00;98887.53;10400314;28;19922;-85
2022/03/15 18:51:51;;;;;;;;;;;;;;;6.65;100.00;98879.56;10352291;28;20012;-83
2022/03/15 18:56:58;;;;;;;;;;;;;;;6.68;100.00;98889.69;10376146;28;19977;-80
2022/03/15 19:02:06;;;;;;;;;;;;;;;6.69;100.00;98893.94;10356346;28;19925;-83
2022/03/15 19:07:07;;;;;;;;;;;;;;;6.69;100.00;98888.59;10389844;28;19926;-82
2022/03/15 19:12:10;;;;;;;;;;;;;;;6.63;100.00;98891.59;10411949;28;19930;-81
2022/03/15 19:17:13;;;;;;;;;;;;;;;6.63;100.00;98891.59;10411254;28;19984;-84
2022/03/15 19:22:15;;;;;;;;;;;;;;;6.70;100.00;98900.06;10379633;28;19933;-83
2022/03/15 19:27:20;;;;;;;;;;;;;;;6.73;100.00;98907.50;10289261;28;19933;-82
2022/03/15 19:32:22;;;;;;;;;;;;;;;6.80;100.00;98916.75;10387301;28;20451;-82
2022/03/15 19:37:23;;;;;;;;;;;;;;;6.94;100.00;98924.88;10384149;28;19980;-80
2022/03/15 19:42:28;;;;;;;;;;;;;;;6.95;100.00;98931.84;10347813;28;19935;-81
2022/03/15 19:47:30;;;;;;;;;;;;;;;6.92;100.00;98932.38;10373646;28;19929;-80
2022/03/15 19:52:31;;;;;;;;;;;;;;;6.97;100.00;98937.69;10373596;28;19929;-81
2022/03/15 19:57:32;;;;;;;;;;;;;;;6.96;100.00;98932.63;10390185;28;19933;-82
2022/03/15 20:02:37;;;;;;;;;;;;;;;6.86;100.00;98928.19;10373752;28;19929;-79
2022/03/15 20:07:40;;;;;;;;;;;;;;;6.80;100.00;98943.44;10367280;28;19930;-79
2022/03/15 20:12:42;;;;;;;;;;;;;;;6.80;100.00;98945.31;10359924;28;19961;-81
2022/03/15 20:17:46;;;;;;;;;;;;;;;6.73;100.00;98939.50;10360653;28;19929;-79
2022/03/15 20:22:49;;;;;;;;;;;;;;;6.60;100.00;98948.19;10341506;28;20381;-83
2022/03/15 20:27:51;;;;;;;;;;;;;;;6.50;100.00;98951.72;10361498;28;19985;-80
2022/03/15 20:32:53;;;;;;;;;;;;;;;6.47;100.00;98955.72;10377009;28;19929;-79
2022/03/15 20:37:54;;;;;;;;;;;;;;;6.36;100.00;98962.22;10372495;28;20207;-80
2022/03/15 20:48:16;;;;;;;;;;;;;;;6.23;100.00;98976.97;10361281;28;19934;-80
2022/03/15 20:53:17;;;;;;;;;;;;;;;6.16;100.00;98986.34;10379330;28;19929;-81
2022/03/15 20:58:18;;;;;;;;;;;;;;;6.06;100.00;98994.41;10384205;28;19929;-81
2022/03/15 21:03:21;;;;;;;;;;;;;;;6.08;100.00;98995.72;10374043;28;19975;-80
2022/03/15 21:08:25;;;;;;;;;;;;;;;5.95;100.00;99005.13;10384866;28;20450;-80
2022/03/15 21:13:31;;;;;;;;;;;;;;;5.93;100.00;99023.22;10342079;28;19949;-80
2022/03/15 21:18:36;;;;;;;;;;;;;;;6.03;100.00;99032.25;10366521;28;19929;-82
2022/03/15 21:23:42;;;;;;;;;;;;;;;5.92;100.00;99042.97;10369731;28;19933;-79
2022/03/15 21:28:45;;;;;;;;;;;;;;;5.86;100.00;99056.56;10360134;28;19952;-82
2022/03/15 21:33:47;;;;;;;;;;;;;;;5.77;100.00;99066.19;10363425;28;19930;-78
2022/03/15 21:38:47;;;;;;;;;;;;;;;5.68;100.00;99064.06;10373606;28;19926;-81
2022/03/15 21:43:48;;;;;;;;;;;;;;;5.70;100.00;99067.25;10383434;28;19929;-79
2022/03/15 21:48:53;;;;;;;;;;;;;;;5.61;100.00;99078.75;10357581;28;19929;-81
2022/03/15 21:53:56;;;;;;;;;;;;;;;5.72;100.00;99089.09;10378893;28;19930;-82
2022/03/15 21:59:01;;;;;;;;;;;;;;;5.67;100.00;99090.97;10380093;28;19926;-82
2022/03/15 22:04:01;;;;;;;;;;;;;;;5.68;100.00;99098.69;10377590;28;19929;-82
2022/03/15 22:09:03;;;;;;;;;;;;;;;5.74;100.00;99096.00;10370504;28;20364;-80
2022/03/15 22:14:04;;;;;;;;;;;;;;;5.73;100.00;99095.22;10347817;28;19969;-79
2022/03/15 22:19:04;;;;;;;;;;;;;;;5.75;100.00;99106.38;10377752;28;19961;-81
2022/03/15 22:24:07;;;;;;;;;;;;;;;5.75;100.00;99101.06;10364316;28;19961;-83
2022/03/15 22:29:08;;;;;;;;;;;;;;;5.75;100.00;99101.06;10347779;28;20687;-79
2022/03/15 23:16:31;;;;;;;;;;;;;;;5.59;100.00;99144.78;10404169;28;20606;-79
2022/03/15 23:32:10;;;;;;;;;;;;;;;5.64;100.00;99161.53;10354993;28;19929;-80
2022/03/15 23:37:13;;;;;;;;;;;;;;;5.64;100.00;99168.72;10343550;28;20508;-78
2022/03/15 23:42:13;;;;;;;;;;;;;;;5.65;100.00;99165.78;10366594;28;19933;-79
2022/03/15 23:47:18;;;;;;;;;;;;;;;5.61;100.00;99183.38;10358212;28;19969;-81
2022/03/15 23:52:21;;;;;;;;;;;;;;;5.65;100.00;99183.63;10385577;28;19997;-82
2022/03/15 23:57:24;;;;;;;;;;;;;;;5.58;100.00;99189.25;10375191;28;20482;-83
